WZZ7841 EPKK-EDDH
Flight info
| Callsign | WZZ7841 |
|---|---|
| Flight time | 1h 19m |
| Altitude | 36000 |
| Route | LUMVE L619 NUDRO T710 SUBIX DCT VIBIS L619 BUMIL/N0397F240 M748 RARUP RARUP3S |
| Aircraft | A321/M-SDE3FGHIRWY/LB1 |
Departure
| Time | 2026-04-23 17:07 |
|---|---|
| Airport | Kraków John Paul II International Airport (EPKK) |
Arrival
| Time | 2026-04-23 18:26 |
|---|---|
| Airport | Hamburg Helmut Schmidt Airport (EDDH) |
| Time | Latitude | Longitude | Altitude | Speed | Heading |
|---|---|---|---|---|---|
| 2026-04-23 16:47 | 50.07690 | 19.80165 | 800 ft | 0 kts | 348° |
| 2026-04-23 17:03 | 50.07695 | 19.80163 | 800 ft | 3 kts | 348° |
| 2026-04-23 17:03 | 50.07745 | 19.80171 | 800 ft | 10 kts | 46° |
| 2026-04-23 17:04 | 50.07768 | 19.80272 | 800 ft | 11 kts | 77° |
| 2026-04-23 17:04 | 50.07815 | 19.80344 | 800 ft | 10 kts | 0° |
| 2026-04-23 17:04 | 50.07846 | 19.80335 | 800 ft | 0 kts | 349° |
| 2026-04-23 17:05 | 50.07871 | 19.80328 | 800 ft | 10 kts | 349° |
| 2026-04-23 17:05 | 50.07972 | 19.80294 | 800 ft | 17 kts | 344° |
| 2026-04-23 17:06 | 50.08004 | 19.80151 | 801 ft | 13 kts | 258° |
| 2026-04-23 17:06 | 50.08002 | 19.80135 | 801 ft | 1 kts | 258° |
| 2026-04-23 17:06 | 50.07973 | 19.79916 | 800 ft | 55 kts | 258° |
| 2026-04-23 17:06 | 50.07842 | 19.78980 | 802 ft | 119 kts | 258° |
| 2026-04-23 17:07 | 50.07686 | 19.77485 | 982 ft | 152 kts | 266° |
| 2026-04-23 17:07 | 50.07480 | 19.75902 | 1661 ft | 149 kts | 264° |
| 2026-04-23 17:07 | 50.07246 | 19.74321 | 2307 ft | 151 kts | 264° |
| 2026-04-23 17:07 | 50.07009 | 19.72706 | 2772 ft | 158 kts | 266° |
| 2026-04-23 17:08 | 50.06758 | 19.70925 | 2952 ft | 180 kts | 263° |
| 2026-04-23 17:08 | 50.06470 | 19.68897 | 3146 ft | 203 kts | 263° |
| 2026-04-23 17:08 | 50.06154 | 19.66641 | 3273 ft | 225 kts | 263° |
| 2026-04-23 17:08 | 50.05795 | 19.64129 | 3474 ft | 249 kts | 262° |
| 2026-04-23 17:09 | 50.05411 | 19.61446 | 4073 ft | 258 kts | 262° |
| 2026-04-23 17:09 | 50.05022 | 19.58741 | 4830 ft | 261 kts | 262° |
| 2026-04-23 17:09 | 50.04622 | 19.55969 | 5597 ft | 263 kts | 262° |
| 2026-04-23 17:09 | 50.04220 | 19.53177 | 6387 ft | 266 kts | 262° |
| 2026-04-23 17:10 | 50.03814 | 19.50349 | 7057 ft | 271 kts | 262° |
| 2026-04-23 17:10 | 50.03404 | 19.47468 | 7710 ft | 275 kts | 263° |
| 2026-04-23 17:10 | 50.02993 | 19.44535 | 8369 ft | 279 kts | 265° |
| 2026-04-23 17:10 | 50.02899 | 19.41536 | 8995 ft | 277 kts | 282° |
| 2026-04-23 17:11 | 50.03344 | 19.38640 | 9656 ft | 274 kts | 297° |
| 2026-04-23 17:11 | 50.04110 | 19.35913 | 10273 ft | 279 kts | 299° |
| 2026-04-23 17:11 | 50.04910 | 19.33084 | 10443 ft | 301 kts | 299° |
| 2026-04-23 17:11 | 50.05781 | 19.29994 | 10582 ft | 322 kts | 298° |
| 2026-04-23 17:12 | 50.06689 | 19.26741 | 11006 ft | 331 kts | 298° |
| 2026-04-23 17:12 | 50.07721 | 19.23535 | 11593 ft | 331 kts | 308° |
| 2026-04-23 17:12 | 50.09041 | 19.20591 | 12206 ft | 333 kts | 309° |
| 2026-04-23 17:12 | 50.10380 | 19.17622 | 12841 ft | 336 kts | 309° |
| 2026-04-23 17:13 | 50.11731 | 19.14625 | 13456 ft | 340 kts | 309° |
| 2026-04-23 17:13 | 50.13096 | 19.11597 | 14036 ft | 343 kts | 309° |
| 2026-04-23 17:13 | 50.14455 | 19.08580 | 14540 ft | 347 kts | 309° |
| 2026-04-23 17:13 | 50.15845 | 19.05485 | 15090 ft | 350 kts | 309° |
| 2026-04-23 17:14 | 50.17246 | 19.02350 | 15651 ft | 354 kts | 309° |
| 2026-04-23 17:14 | 50.18657 | 18.99187 | 16210 ft | 357 kts | 309° |
| 2026-04-23 17:14 | 50.20081 | 18.95992 | 16759 ft | 360 kts | 309° |
| 2026-04-23 17:14 | 50.21517 | 18.92771 | 17303 ft | 363 kts | 309° |
| 2026-04-23 17:15 | 50.22967 | 18.89527 | 17845 ft | 367 kts | 310° |
| 2026-04-23 17:15 | 50.24414 | 18.86282 | 18375 ft | 370 kts | 310° |
| 2026-04-23 17:15 | 50.25888 | 18.82973 | 18839 ft | 373 kts | 310° |
| 2026-04-23 17:15 | 50.27371 | 18.79627 | 19315 ft | 376 kts | 310° |
| 2026-04-23 17:16 | 50.28825 | 18.76339 | 19796 ft | 377 kts | 310° |
| 2026-04-23 17:16 | 50.30322 | 18.72956 | 20288 ft | 379 kts | 310° |
| 2026-04-23 17:16 | 50.31829 | 18.69553 | 20764 ft | 382 kts | 310° |
| 2026-04-23 17:16 | 50.33352 | 18.66113 | 21233 ft | 385 kts | 310° |
| 2026-04-23 17:17 | 50.34880 | 18.62655 | 21696 ft | 388 kts | 310° |
| 2026-04-23 17:17 | 50.36420 | 18.59162 | 22155 ft | 391 kts | 310° |
| 2026-04-23 17:17 | 50.37441 | 18.56841 | 22453 ft | 392 kts | 310° |
| 2026-04-23 17:17 | 50.39497 | 18.52159 | 23039 ft | 395 kts | 310° |
| 2026-04-23 17:18 | 50.42631 | 18.45011 | 23854 ft | 400 kts | 310° |
| 2026-04-23 17:18 | 50.44212 | 18.41402 | 24226 ft | 402 kts | 310° |
| 2026-04-23 17:18 | 50.45797 | 18.37777 | 24590 ft | 404 kts | 310° |
| 2026-04-23 17:19 | 50.47388 | 18.34133 | 24951 ft | 406 kts | 310° |
| 2026-04-23 17:19 | 50.48988 | 18.30464 | 25313 ft | 408 kts | 311° |
| 2026-04-23 17:19 | 50.50566 | 18.26831 | 25673 ft | 409 kts | 311° |
| 2026-04-23 17:19 | 50.52173 | 18.23125 | 26022 ft | 411 kts | 311° |
| 2026-04-23 17:20 | 50.53789 | 18.19400 | 26374 ft | 413 kts | 311° |
| 2026-04-23 17:20 | 50.57039 | 18.11914 | 27076 ft | 416 kts | 311° |
| 2026-04-23 17:21 | 50.60316 | 18.04352 | 27732 ft | 420 kts | 311° |
| 2026-04-23 17:21 | 50.61960 | 18.00537 | 28058 ft | 422 kts | 311° |
| 2026-04-23 17:21 | 50.65239 | 17.92889 | 28631 ft | 426 kts | 311° |
| 2026-04-23 17:22 | 50.66902 | 17.89004 | 28949 ft | 428 kts | 311° |
| 2026-04-23 17:22 | 50.70236 | 17.81211 | 29610 ft | 430 kts | 311° |
| 2026-04-23 17:23 | 50.73595 | 17.73349 | 30208 ft | 434 kts | 311° |
| 2026-04-23 17:23 | 50.75281 | 17.69386 | 30472 ft | 436 kts | 311° |
| 2026-04-23 17:23 | 50.78628 | 17.61495 | 31156 ft | 434 kts | 311° |
| 2026-04-23 17:24 | 50.80303 | 17.57533 | 31472 ft | 433 kts | 311° |
| 2026-04-23 17:24 | 50.81979 | 17.53574 | 31811 ft | 433 kts | 311° |
| 2026-04-23 17:24 | 50.85320 | 17.45677 | 32511 ft | 431 kts | 311° |
| 2026-04-23 17:25 | 50.88648 | 17.37779 | 33162 ft | 430 kts | 311° |
| 2026-04-23 17:25 | 50.90303 | 17.33841 | 33496 ft | 429 kts | 311° |
| 2026-04-23 17:26 | 50.93579 | 17.26021 | 34137 ft | 428 kts | 311° |
| 2026-04-23 17:26 | 50.96862 | 17.18169 | 34638 ft | 427 kts | 311° |
| 2026-04-23 17:27 | 51.00151 | 17.10291 | 35111 ft | 428 kts | 311° |
| 2026-04-23 17:27 | 51.01790 | 17.06344 | 35357 ft | 428 kts | 311° |
| 2026-04-23 17:27 | 51.03424 | 17.02399 | 35611 ft | 427 kts | 311° |
| 2026-04-23 17:27 | 51.05033 | 16.98511 | 35899 ft | 426 kts | 311° |
| 2026-04-23 17:28 | 51.06655 | 16.94581 | 36081 ft | 425 kts | 311° |
| 2026-04-23 17:28 | 51.08270 | 16.90658 | 36111 ft | 424 kts | 310° |
| 2026-04-23 17:28 | 51.11492 | 16.82824 | 36119 ft | 423 kts | 311° |
| 2026-04-23 17:29 | 51.14718 | 16.74993 | 36116 ft | 424 kts | 310° |
| 2026-04-23 17:30 | 51.19019 | 16.64520 | 36120 ft | 424 kts | 310° |
| 2026-04-23 17:30 | 51.24366 | 16.51389 | 36133 ft | 425 kts | 310° |
| 2026-04-23 17:31 | 51.27579 | 16.43463 | 36138 ft | 425 kts | 310° |
| 2026-04-23 17:31 | 51.30793 | 16.35531 | 36120 ft | 426 kts | 310° |
| 2026-04-23 17:32 | 51.33990 | 16.27624 | 36127 ft | 426 kts | 310° |
| 2026-04-23 17:32 | 51.37205 | 16.19642 | 36140 ft | 427 kts | 310° |
| 2026-04-23 17:33 | 51.39870 | 16.12992 | 36146 ft | 427 kts | 310° |
| 2026-04-23 17:33 | 51.43076 | 16.04969 | 36165 ft | 427 kts | 310° |
| 2026-04-23 17:34 | 51.46268 | 15.96944 | 36149 ft | 427 kts | 309° |
| 2026-04-23 17:35 | 51.51055 | 15.84903 | 36166 ft | 426 kts | 309° |
| 2026-04-23 17:35 | 51.55807 | 15.72904 | 36168 ft | 426 kts | 309° |
| 2026-04-23 17:36 | 51.58981 | 15.64851 | 36164 ft | 426 kts | 309° |
| 2026-04-23 17:36 | 51.62147 | 15.56781 | 36151 ft | 427 kts | 309° |
| 2026-04-23 17:37 | 51.65311 | 15.48689 | 36155 ft | 427 kts | 309° |
| 2026-04-23 17:38 | 51.70023 | 15.36574 | 36167 ft | 428 kts | 309° |
| 2026-04-23 17:38 | 51.73181 | 15.28452 | 36174 ft | 427 kts | 309° |
| 2026-04-23 17:39 | 51.76337 | 15.20314 | 36142 ft | 427 kts | 309° |
| 2026-04-23 17:39 | 51.79462 | 15.12225 | 36149 ft | 428 kts | 308° |
| 2026-04-23 17:40 | 51.82602 | 15.04066 | 36165 ft | 427 kts | 308° |
| 2026-04-23 17:40 | 51.85725 | 14.95904 | 36171 ft | 427 kts | 308° |
| 2026-04-23 17:41 | 51.88839 | 14.87736 | 36172 ft | 426 kts | 308° |
| 2026-04-23 17:41 | 51.93478 | 14.75535 | 36151 ft | 426 kts | 307° |
| 2026-04-23 17:42 | 51.98143 | 14.63253 | 36151 ft | 427 kts | 307° |
| 2026-04-23 17:43 | 52.01245 | 14.55031 | 36152 ft | 428 kts | 307° |
| 2026-04-23 17:43 | 52.04345 | 14.46781 | 36157 ft | 428 kts | 307° |
| 2026-04-23 17:44 | 52.07422 | 14.38577 | 36166 ft | 428 kts | 307° |
| 2026-04-23 17:44 | 52.12063 | 14.26154 | 36173 ft | 429 kts | 307° |
| 2026-04-23 17:45 | 52.16687 | 14.13697 | 36180 ft | 428 kts | 307° |
| 2026-04-23 17:46 | 52.21278 | 14.01288 | 36206 ft | 427 kts | 307° |
| 2026-04-23 17:46 | 52.24338 | 13.92983 | 36181 ft | 427 kts | 306° |
| 2026-04-23 17:47 | 52.27392 | 13.84663 | 36186 ft | 428 kts | 306° |
| 2026-04-23 17:48 | 52.31950 | 13.72195 | 36194 ft | 428 kts | 306° |
| 2026-04-23 17:48 | 52.34993 | 13.63818 | 36217 ft | 429 kts | 306° |
| 2026-04-23 17:49 | 52.38035 | 13.55434 | 36207 ft | 428 kts | 306° |
| 2026-04-23 17:49 | 52.41073 | 13.47039 | 36186 ft | 429 kts | 305° |
| 2026-04-23 17:50 | 52.44086 | 13.38672 | 36187 ft | 429 kts | 305° |
| 2026-04-23 17:50 | 52.48629 | 13.26006 | 36190 ft | 430 kts | 305° |
| 2026-04-23 17:51 | 52.51654 | 13.17531 | 36192 ft | 430 kts | 305° |
| 2026-04-23 17:52 | 52.56165 | 13.04878 | 36171 ft | 427 kts | 304° |
| 2026-04-23 17:52 | 52.60613 | 12.92189 | 36165 ft | 428 kts | 304° |
| 2026-04-23 17:53 | 52.65133 | 12.79447 | 36013 ft | 431 kts | 304° |
| 2026-04-23 17:53 | 52.66640 | 12.75186 | 35541 ft | 431 kts | 304° |
| 2026-04-23 17:54 | 52.68144 | 12.70913 | 34982 ft | 430 kts | 304° |
| 2026-04-23 17:54 | 52.69615 | 12.66708 | 34521 ft | 428 kts | 304° |
| 2026-04-23 17:54 | 52.72562 | 12.58227 | 33522 ft | 422 kts | 304° |
| 2026-04-23 17:55 | 52.75458 | 12.49889 | 32594 ft | 415 kts | 304° |
| 2026-04-23 17:55 | 52.76888 | 12.45774 | 32133 ft | 412 kts | 304° |
| 2026-04-23 17:55 | 52.78305 | 12.41687 | 31674 ft | 408 kts | 304° |
| 2026-04-23 17:56 | 52.79691 | 12.37685 | 31224 ft | 405 kts | 304° |
| 2026-04-23 17:56 | 52.82460 | 12.29645 | 30329 ft | 400 kts | 304° |
| 2026-04-23 17:56 | 52.83833 | 12.25666 | 29842 ft | 397 kts | 304° |
| 2026-04-23 17:57 | 52.85190 | 12.21727 | 29410 ft | 392 kts | 304° |
| 2026-04-23 17:57 | 52.86530 | 12.17824 | 28981 ft | 388 kts | 303° |
| 2026-04-23 17:57 | 52.89156 | 12.10124 | 28162 ft | 381 kts | 303° |
| 2026-04-23 17:58 | 52.90438 | 12.06363 | 27776 ft | 378 kts | 303° |
| 2026-04-23 17:58 | 52.91729 | 12.02582 | 27388 ft | 376 kts | 303° |
| 2026-04-23 17:58 | 52.93007 | 11.98833 | 27011 ft | 373 kts | 303° |
| 2026-04-23 17:58 | 52.94276 | 11.95101 | 26630 ft | 370 kts | 303° |
| 2026-04-23 17:59 | 52.95528 | 11.91406 | 26252 ft | 367 kts | 303° |
| 2026-04-23 17:59 | 52.96772 | 11.87733 | 25864 ft | 364 kts | 303° |
| 2026-04-23 17:59 | 52.98007 | 11.84088 | 25493 ft | 361 kts | 303° |
| 2026-04-23 17:59 | 52.99100 | 11.80344 | 25107 ft | 362 kts | 294° |
| 2026-04-23 18:00 | 52.99826 | 11.76338 | 24699 ft | 362 kts | 289° |
| 2026-04-23 18:00 | 53.00487 | 11.72376 | 24293 ft | 360 kts | 289° |
| 2026-04-23 18:00 | 53.01157 | 11.68380 | 23888 ft | 358 kts | 289° |
| 2026-04-23 18:00 | 53.01821 | 11.64409 | 23433 ft | 356 kts | 289° |
| 2026-04-23 18:01 | 53.02479 | 11.60460 | 23017 ft | 353 kts | 289° |
| 2026-04-23 18:01 | 53.03137 | 11.56545 | 22599 ft | 349 kts | 290° |
| 2026-04-23 18:01 | 53.04037 | 11.52852 | 22191 ft | 342 kts | 301° |
| 2026-04-23 18:01 | 53.05177 | 11.49416 | 21789 ft | 338 kts | 302° |
| 2026-04-23 18:02 | 53.06306 | 11.46005 | 21383 ft | 336 kts | 302° |
| 2026-04-23 18:02 | 53.07422 | 11.42610 | 20991 ft | 333 kts | 302° |
| 2026-04-23 18:02 | 53.08526 | 11.39246 | 20597 ft | 331 kts | 302° |
| 2026-04-23 18:02 | 53.09609 | 11.35941 | 20202 ft | 328 kts | 302° |
| 2026-04-23 18:03 | 53.10695 | 11.32621 | 19807 ft | 326 kts | 302° |
| 2026-04-23 18:03 | 53.11939 | 11.29508 | 19413 ft | 320 kts | 313° |
| 2026-04-23 18:03 | 53.13510 | 11.26931 | 19021 ft | 315 kts | 324° |
| 2026-04-23 18:03 | 53.15288 | 11.24842 | 18651 ft | 312 kts | 327° |
| 2026-04-23 18:04 | 53.17076 | 11.22796 | 18243 ft | 311 kts | 327° |
| 2026-04-23 18:04 | 53.18853 | 11.20753 | 17850 ft | 308 kts | 327° |
| 2026-04-23 18:04 | 53.20607 | 11.18728 | 17477 ft | 305 kts | 327° |
| 2026-04-23 18:04 | 53.22345 | 11.16715 | 17090 ft | 303 kts | 327° |
| 2026-04-23 18:05 | 53.24064 | 11.14716 | 16722 ft | 300 kts | 327° |
| 2026-04-23 18:05 | 53.25749 | 11.12755 | 16358 ft | 298 kts | 327° |
| 2026-04-23 18:05 | 53.27441 | 11.10790 | 15999 ft | 296 kts | 327° |
| 2026-04-23 18:05 | 53.29126 | 11.08832 | 15637 ft | 294 kts | 327° |
| 2026-04-23 18:06 | 53.30798 | 11.06883 | 15275 ft | 293 kts | 327° |
| 2026-04-23 18:06 | 53.32499 | 11.04884 | 14916 ft | 303 kts | 327° |
| 2026-04-23 18:06 | 53.34232 | 11.02862 | 14657 ft | 305 kts | 327° |
| 2026-04-23 18:06 | 53.35977 | 11.00836 | 14419 ft | 305 kts | 327° |
| 2026-04-23 18:07 | 53.37717 | 10.98815 | 14178 ft | 304 kts | 327° |
| 2026-04-23 18:07 | 53.39450 | 10.96799 | 13945 ft | 303 kts | 327° |
| 2026-04-23 18:07 | 53.41180 | 10.94781 | 13690 ft | 302 kts | 327° |
| 2026-04-23 18:07 | 53.42896 | 10.92775 | 13426 ft | 300 kts | 327° |
| 2026-04-23 18:08 | 53.44028 | 10.91450 | 13257 ft | 299 kts | 327° |
| 2026-04-23 18:08 | 53.46274 | 10.88817 | 12898 ft | 296 kts | 327° |
| 2026-04-23 18:08 | 53.47922 | 10.86753 | 12638 ft | 296 kts | 317° |
| 2026-04-23 18:08 | 53.49055 | 10.83885 | 12366 ft | 300 kts | 293° |
| 2026-04-23 18:09 | 53.49579 | 10.80480 | 12009 ft | 302 kts | 285° |
| 2026-04-23 18:09 | 53.49980 | 10.77035 | 11669 ft | 300 kts | 284° |
| 2026-04-23 18:09 | 53.50365 | 10.73603 | 11323 ft | 298 kts | 284° |
| 2026-04-23 18:09 | 53.50743 | 10.70193 | 10989 ft | 296 kts | 285° |
| 2026-04-23 18:10 | 53.51291 | 10.66904 | 10653 ft | 290 kts | 293° |
| 2026-04-23 18:10 | 53.51991 | 10.63743 | 10317 ft | 287 kts | 294° |
| 2026-04-23 18:10 | 53.52690 | 10.60666 | 9989 ft | 284 kts | 294° |
| 2026-04-23 18:10 | 53.53389 | 10.57579 | 9626 ft | 282 kts | 295° |
| 2026-04-23 18:11 | 53.54081 | 10.54515 | 9262 ft | 279 kts | 294° |
| 2026-04-23 18:11 | 53.54763 | 10.51478 | 8906 ft | 276 kts | 294° |
| 2026-04-23 18:11 | 53.55436 | 10.48467 | 8548 ft | 274 kts | 294° |
| 2026-04-23 18:11 | 53.56103 | 10.45481 | 8193 ft | 272 kts | 294° |
| 2026-04-23 18:12 | 53.56763 | 10.42515 | 7842 ft | 270 kts | 294° |
| 2026-04-23 18:12 | 53.57410 | 10.39606 | 7494 ft | 260 kts | 295° |
| 2026-04-23 18:12 | 53.58047 | 10.36831 | 7140 ft | 246 kts | 302° |
| 2026-04-23 18:12 | 53.59080 | 10.34709 | 6806 ft | 228 kts | 321° |
| 2026-04-23 18:13 | 53.60274 | 10.33057 | 6479 ft | 217 kts | 324° |
| 2026-04-23 18:13 | 53.61444 | 10.31521 | 6137 ft | 215 kts | 324° |
| 2026-04-23 18:13 | 53.62625 | 10.29987 | 5789 ft | 213 kts | 324° |
| 2026-04-23 18:13 | 53.63895 | 10.28778 | 5433 ft | 210 kts | 346° |
| 2026-04-23 18:14 | 53.65328 | 10.28992 | 5266 ft | 214 kts | 20° |
| 2026-04-23 18:14 | 53.66520 | 10.30604 | 5277 ft | 226 kts | 41° |
| 2026-04-23 18:14 | 53.67568 | 10.32670 | 5248 ft | 236 kts | 44° |
| 2026-04-23 18:14 | 53.68615 | 10.34816 | 5241 ft | 238 kts | 44° |
| 2026-04-23 18:15 | 53.69666 | 10.36978 | 5233 ft | 239 kts | 44° |
| 2026-04-23 18:15 | 53.70717 | 10.39142 | 5232 ft | 238 kts | 44° |
| 2026-04-23 18:15 | 53.71766 | 10.41313 | 5231 ft | 238 kts | 44° |
| 2026-04-23 18:15 | 53.72797 | 10.43454 | 5229 ft | 238 kts | 45° |
| 2026-04-23 18:16 | 53.73847 | 10.45623 | 5235 ft | 238 kts | 45° |
| 2026-04-23 18:16 | 53.74902 | 10.47785 | 5230 ft | 239 kts | 45° |
| 2026-04-23 18:16 | 53.75968 | 10.49946 | 5224 ft | 240 kts | 45° |
| 2026-04-23 18:17 | 53.78109 | 10.54265 | 5219 ft | 240 kts | 44° |
| 2026-04-23 18:17 | 53.79277 | 10.56222 | 5223 ft | 233 kts | 26° |
| 2026-04-23 18:17 | 53.80778 | 10.57072 | 5224 ft | 227 kts | 7° |
| 2026-04-23 18:17 | 53.82338 | 10.57481 | 5220 ft | 227 kts | 5° |
| 2026-04-23 18:18 | 53.83901 | 10.57844 | 5222 ft | 226 kts | 5° |
| 2026-04-23 18:18 | 53.85440 | 10.58024 | 5216 ft | 223 kts | 350° |
| 2026-04-23 18:18 | 53.86829 | 10.56961 | 5218 ft | 223 kts | 320° |
| 2026-04-23 18:18 | 53.87648 | 10.54721 | 5221 ft | 231 kts | 289° |
| 2026-04-23 18:19 | 53.87620 | 10.51959 | 5222 ft | 244 kts | 258° |
| 2026-04-23 18:19 | 53.86863 | 10.49330 | 5220 ft | 251 kts | 246° |
| 2026-04-23 18:19 | 53.85952 | 10.46805 | 5226 ft | 251 kts | 244° |
| 2026-04-23 18:19 | 53.85030 | 10.44295 | 5226 ft | 251 kts | 244° |
| 2026-04-23 18:20 | 53.84102 | 10.41784 | 5227 ft | 252 kts | 243° |
| 2026-04-23 18:20 | 53.83058 | 10.39429 | 5206 ft | 247 kts | 238° |
| 2026-04-23 18:20 | 53.81981 | 10.37179 | 5081 ft | 245 kts | 237° |
| 2026-04-23 18:20 | 53.80918 | 10.35032 | 4953 ft | 236 kts | 236° |
| 2026-04-23 18:21 | 53.79883 | 10.32997 | 4826 ft | 220 kts | 236° |
| 2026-04-23 18:21 | 53.78896 | 10.31056 | 4619 ft | 219 kts | 236° |
| 2026-04-23 18:21 | 53.77906 | 10.29088 | 4342 ft | 220 kts | 237° |
| 2026-04-23 18:21 | 53.76921 | 10.27119 | 4058 ft | 218 kts | 237° |
| 2026-04-23 18:22 | 53.75954 | 10.25153 | 3781 ft | 217 kts | 237° |
| 2026-04-23 18:22 | 53.74995 | 10.23191 | 3502 ft | 215 kts | 237° |
| 2026-04-23 18:22 | 53.74040 | 10.21233 | 3266 ft | 212 kts | 237° |
| 2026-04-23 18:22 | 53.73129 | 10.19375 | 3027 ft | 199 kts | 238° |
| 2026-04-23 18:23 | 53.72553 | 10.18199 | 2871 ft | 193 kts | 238° |
| 2026-04-23 18:23 | 53.70647 | 10.14303 | 2293 ft | 179 kts | 239° |
| 2026-04-23 18:24 | 53.69064 | 10.11075 | 1805 ft | 177 kts | 239° |
| 2026-04-23 18:24 | 53.68295 | 10.09513 | 1579 ft | 164 kts | 239° |
| 2026-04-23 18:24 | 53.67596 | 10.08096 | 1359 ft | 152 kts | 238° |
| 2026-04-23 18:25 | 53.66305 | 10.05470 | 950 ft | 142 kts | 238° |
| 2026-04-23 18:25 | 53.65688 | 10.04214 | 745 ft | 137 kts | 238° |
| 2026-04-23 18:25 | 53.65077 | 10.02983 | 572 ft | 137 kts | 235° |
| 2026-04-23 18:25 | 53.64486 | 10.01775 | 338 ft | 135 kts | 235° |
| 2026-04-23 18:26 | 53.63890 | 10.00551 | 184 ft | 135 kts | 234° |
| 2026-04-23 18:26 | 53.63292 | 9.99348 | 49 ft | 128 kts | 233° |
| 2026-04-23 18:26 | 53.62813 | 9.98367 | 45 ft | 90 kts | 230° |
| 2026-04-23 18:26 | 53.62575 | 9.97886 | 42 ft | 27 kts | 230° |
| 2026-04-23 18:27 | 53.62458 | 9.97811 | 41 ft | 17 kts | 149° |
| 2026-04-23 18:27 | 53.62433 | 9.97946 | 41 ft | 12 kts | 81° |
| 2026-04-23 18:27 | 53.62463 | 9.98083 | 41 ft | 13 kts | 60° |
| 2026-04-23 18:27 | 53.62521 | 9.98209 | 42 ft | 14 kts | 51° |
| 2026-04-23 18:28 | 53.62584 | 9.98337 | 42 ft | 15 kts | 50° |
| 2026-04-23 18:28 | 53.62652 | 9.98473 | 42 ft | 16 kts | 50° |
| 2026-04-23 18:28 | 53.62723 | 9.98618 | 43 ft | 17 kts | 50° |
| 2026-04-23 18:28 | 53.62784 | 9.98743 | 43 ft | 14 kts | 50° |
| 2026-04-23 18:29 | 53.62847 | 9.98870 | 43 ft | 14 kts | 50° |
| 2026-04-23 18:29 | 53.62903 | 9.98982 | 43 ft | 4 kts | 50° |
| 2026-04-23 18:29 | 53.62923 | 9.99022 | 43 ft | 5 kts | 50° |
| 2026-04-23 18:29 | 53.62954 | 9.99085 | 44 ft | 10 kts | 50° |
| 2026-04-23 18:30 | 53.62985 | 9.99147 | 44 ft | 0 kts | 50° |
| 2026-04-23 18:31 | 53.62986 | 9.99149 | 44 ft | 1 kts | 50° |
| 2026-04-23 18:31 | 53.63025 | 9.99229 | 44 ft | 15 kts | 50° |
| 2026-04-23 18:32 | 53.63072 | 9.99333 | 45 ft | 5 kts | 55° |
| 2026-04-23 18:32 | 53.63083 | 9.99360 | 45 ft | 0 kts | 55° |
| 2026-04-23 18:33 | 53.63088 | 9.99373 | 45 ft | 6 kts | 55° |
| 2026-04-23 18:33 | 53.63142 | 9.99505 | 45 ft | 18 kts | 53° |
| 2026-04-23 18:33 | 53.63200 | 9.99625 | 44 ft | 7 kts | 51° |
| 2026-04-23 18:34 | 53.63220 | 9.99691 | 45 ft | 7 kts | 82° |
| 2026-04-23 18:34 | 53.63200 | 9.99778 | 44 ft | 13 kts | 140° |
| 2026-04-23 18:34 | 53.63099 | 9.99870 | 45 ft | 18 kts | 153° |
| 2026-04-23 18:34 | 53.63002 | 9.99953 | 45 ft | 14 kts | 153° |
| 2026-04-23 18:35 | 53.62941 | 10.00076 | 46 ft | 13 kts | 108° |
| 2026-04-23 18:35 | 53.62904 | 10.00183 | 46 ft | 9 kts | 123° |
| 2026-04-23 18:35 | 53.62896 | 10.00204 | 46 ft | 0 kts | 123° |
| 2026-04-23 18:36 | 53.62896 | 10.00203 | 46 ft | 0 kts | 123° |